Accueil
METAR-TAF:

METAR-TAF

Aéroports :

Aéroport de Lugano

Lugano, Suisse

latitude: 46-00N, longitude: 008-58E, altitude: 273 m

Observation

Le bulletin a été fait il y a 11 minutes, à 02:50 UTC
Vent 1 kt de direction variable
Température 18°C
Humidité 94%
Pression 1016 hPa
Visibilité 10 km ou plus
Quelques nuages à une hauteur de 7000 ft

METAR: LSZA 170250Z AUTO VRB01KT 9999 FEW070 18/17 Q1016

Heure: 05:01 (03:01 UTC)

Prévision

Le bulletin a été fait il y a 36 minutes, à 02:25 UTC
Prévision valable du 17 à 03 UTC au 17 à 12 UTC
Vent 3 kt de direction variable
Visibilité 10 km ou plus
Quelques nuages à une hauteur de 7000 ft
Nuages fragmentés à une hauteur de 13000 ft
Probabilité 40% :
Temporairement
du 17 à 04 UTC au 17 à 08 UTC
Visibilité 10 km ou plus
pas de nuages en-dessous de 1500 mètres et pas de cumulonimbus.

TAF: LSZA 170225Z 1703/1712 VRB03KT 9999 FEW070 BKN130 PROB40 TEMPO 1704/1708 CAVOK

Observations et prévisions météorologiques de plus de 4000 aéroports (messages METAR et TAF).

Les stations disponibles sont représentées par des disques jaunes et rouges sur la carte.

Passer la souris dessus pour voir le nom de la station.

Cliquer dessus pour voir les observations et prévisions météorologiques.

Pour changer de carte: cliquez sur les boutons verts avec une croix noire pour zoomer, sur le bouton vert avec un tiret pour effectuer un zoom arrière, ou sur les flèches vertes pour les cartes adjacentes.


METAR-TAF: